createdAt,value
2023-01-11T00:05:58.784Z,4.07
2023-01-11T01:16:09.773Z,3.94
2023-01-11T04:27:01.083Z,4.39
2023-01-11T04:48:52.248Z,4.55
2023-01-11T05:24:38.624Z,4.57
2023-01-11T05:27:06.248Z,4.63
2023-01-11T05:29:33.028Z,4.67
2023-01-11T05:31:59.882Z,4.67
2023-01-11T05:34:26.642Z,4.69
2023-01-11T05:36:56.342Z,4.60
2023-01-11T05:39:24.010Z,4.56
2023-01-11T05:41:50.759Z,4.54
2023-01-11T05:44:36.607Z,4.50
2023-01-11T05:47:04.339Z,4.55
2023-01-11T05:49:31.117Z,4.54
2023-01-11T05:51:57.789Z,4.58
2023-01-11T05:54:24.536Z,4.60
2023-01-11T05:56:51.235Z,4.64
2023-01-11T05:59:20.625Z,4.60
2023-01-11T06:01:47.641Z,4.64
2023-01-11T06:04:14.658Z,4.60
2023-01-11T06:06:41.766Z,4.66
2023-01-11T06:09:08.933Z,4.74
2023-01-11T06:11:35.729Z,4.75
2023-01-11T06:14:03.035Z,4.69
2023-01-11T06:16:29.739Z,4.66
2023-01-11T06:18:56.490Z,4.68
2023-01-11T06:21:24.445Z,4.61
2023-01-11T06:23:51.494Z,4.62
2023-01-11T06:26:23.320Z,4.66
2023-01-11T06:28:52.569Z,4.62
2023-01-11T06:31:19.589Z,4.68
2023-01-11T06:33:47.164Z,4.71
2023-01-11T06:36:14.644Z,4.66
2023-01-11T06:38:41.651Z,4.63
2023-01-11T06:41:08.860Z,4.63
2023-01-11T06:43:37.228Z,4.61
2023-01-11T06:46:05.101Z,4.60
2023-01-11T06:48:31.898Z,4.60
2023-01-11T06:50:58.858Z,4.59
2023-01-11T06:53:28.456Z,4.58
2023-01-11T06:55:57.169Z,4.57
2023-01-11T06:58:25.407Z,4.55
2023-01-11T07:00:53.802Z,4.55
2023-01-11T07:03:21.234Z,4.55
2023-01-11T07:05:48.286Z,4.56
2023-01-11T07:08:15.431Z,4.59
2023-01-11T07:10:44.278Z,4.62
2023-01-11T07:13:11.818Z,4.68
2023-01-11T07:15:38.589Z,4.68
2023-01-11T07:18:05.398Z,4.64
2023-01-11T07:20:32.155Z,4.63
2023-01-11T07:22:59.929Z,4.61
2023-01-11T07:25:28.028Z,4.68
2023-01-11T07:27:57.183Z,4.66
2023-01-11T07:30:24.671Z,4.65
2023-01-11T07:32:51.364Z,4.66
2023-01-11T07:35:18.064Z,4.66
2023-01-11T07:37:45.623Z,4.68
2023-01-11T07:40:13.156Z,4.67
2023-01-11T07:42:58.792Z,4.68
2023-01-11T07:45:29.215Z,4.64
2023-01-11T07:48:05.714Z,4.67
2023-01-11T07:50:32.848Z,4.63
2023-01-11T07:52:59.540Z,4.66
2023-01-11T07:55:26.271Z,4.68
2023-01-11T07:57:54.000Z,4.67
2023-01-11T08:00:21.470Z,4.67
2023-01-11T08:02:52.840Z,4.70
2023-01-11T08:05:22.095Z,4.68
2023-01-11T08:07:48.867Z,4.71
2023-01-11T08:10:16.145Z,4.79
2023-01-11T08:13:05.782Z,4.74
2023-01-11T08:15:33.468Z,4.78
2023-01-11T08:18:00.877Z,4.81
2023-01-11T08:20:27.673Z,4.78
2023-01-11T08:22:54.709Z,4.80
2023-01-11T08:25:21.593Z,4.84
2023-01-11T08:27:48.275Z,4.90
2023-01-11T08:30:17.993Z,4.92
2023-01-11T08:32:44.898Z,4.86
2023-01-11T08:35:12.383Z,4.93
2023-01-11T08:37:39.060Z,4.94
2023-01-11T08:40:06.318Z,4.97
2023-01-11T08:42:34.181Z,4.95
2023-01-11T08:45:00.932Z,4.89
2023-01-11T08:47:27.751Z,4.94
2023-01-11T08:49:57.006Z,4.94
2023-01-11T08:52:23.928Z,4.98
2023-01-11T08:54:50.894Z,5.06
2023-01-11T08:57:17.736Z,5.04
2023-01-11T08:59:44.672Z,5.05
2023-01-11T09:02:12.865Z,5.01
2023-01-11T09:04:39.951Z,5.07
2023-01-11T09:07:06.720Z,5.07
2023-01-11T09:09:33.479Z,5.14
2023-01-11T09:12:05.475Z,5.11
2023-01-11T09:14:32.531Z,5.14
2023-01-11T09:16:59.367Z,5.13
2023-01-11T09:19:26.260Z,5.11
2023-01-11T09:21:53.658Z,5.08
2023-01-11T09:24:23.007Z,5.10
2023-01-11T09:26:49.748Z,5.11
2023-01-11T09:29:19.596Z,5.14
2023-01-11T09:31:46.451Z,5.13
2023-01-11T09:34:13.443Z,5.17
2023-01-11T09:36:40.759Z,5.20
2023-01-11T09:39:11.758Z,5.18
2023-01-11T09:41:41.699Z,5.14
2023-01-11T09:44:16.443Z,5.09
2023-01-11T09:46:50.106Z,5.07
2023-01-11T09:49:20.363Z,5.08
2023-01-11T09:51:47.815Z,5.14
2023-01-11T09:54:19.178Z,5.12
2023-01-11T09:56:53.801Z,5.15
2023-01-11T09:59:33.551Z,5.10
2023-01-11T10:02:17.448Z,5.07
2023-01-11T10:05:19.744Z,5.13
2023-01-11T10:18:29.206Z,5.18
2023-01-11T10:19:38.637Z,5.18
2023-01-11T10:22:19.754Z,5.20
2023-01-11T10:24:56.496Z,5.21
2023-01-11T10:27:37.471Z,5.23
2023-01-11T10:30:41.896Z,5.26
2023-01-11T10:33:37.995Z,5.27
2023-01-11T10:36:34.829Z,5.26
2023-01-11T10:39:32.851Z,5.29
2023-01-11T10:42:11.781Z,5.29
2023-01-11T10:44:43.158Z,5.29
2023-01-11T10:47:19.874Z,5.34
2023-01-11T10:50:00.224Z,5.38
2023-01-11T10:52:30.235Z,5.40
2023-01-11T10:55:26.747Z,5.41
2023-01-11T10:58:18.562Z,5.43
2023-01-11T11:00:57.182Z,5.42
2023-01-11T11:03:33.958Z,5.45
2023-01-11T11:06:25.247Z,5.46
2023-01-11T11:09:07.487Z,5.44
2023-01-11T11:11:59.251Z,5.48
2023-01-11T11:14:44.370Z,5.49
2023-01-11T11:17:29.048Z,5.52
2023-01-11T11:19:57.649Z,5.56
2023-01-11T11:22:24.776Z,5.59
2023-01-11T11:25:16.217Z,5.58
2023-01-11T11:27:48.164Z,5.58
2023-01-11T11:30:26.665Z,5.60
2023-01-11T11:33:00.918Z,5.65
2023-01-11T11:35:31.696Z,5.67
2023-01-11T11:37:58.667Z,5.62
2023-01-11T11:40:39.087Z,5.61
2023-01-11T11:43:25.924Z,5.63
2023-01-11T11:45:59.659Z,5.70
2023-01-11T11:48:28.540Z,5.71
2023-01-11T11:50:58.066Z,5.74
2023-01-11T11:53:29.410Z,5.74
2023-01-11T11:55:56.147Z,5.80
2023-01-11T11:58:24.388Z,5.78
2023-01-11T12:00:52.305Z,5.73
2023-01-11T12:03:28.250Z,5.73
2023-01-11T12:06:03.199Z,5.75
2023-01-11T12:08:32.029Z,5.76
2023-01-11T12:11:00.424Z,5.75
2023-01-11T12:13:33.765Z,5.72
2023-01-11T12:16:03.230Z,5.74
2023-01-11T12:18:42.523Z,5.78
2023-01-11T12:21:23.795Z,5.79
2023-01-11T12:24:19.594Z,5.79
2023-01-11T12:27:05.420Z,5.81
2023-01-11T12:29:46.308Z,5.83
2023-01-11T12:32:22.395Z,5.91
2023-01-11T12:35:17.417Z,5.87
2023-01-11T12:37:53.789Z,5.93
2023-01-11T12:40:37.575Z,5.91
2023-01-11T12:43:42.930Z,5.89
2023-01-11T12:46:35.313Z,5.89
2023-01-11T12:49:20.888Z,5.94
2023-01-11T12:52:02.967Z,5.94
2023-01-11T12:54:44.546Z,5.94
2023-01-11T12:57:26.257Z,5.94
2023-01-11T13:00:03.444Z,5.95
2023-01-11T13:02:50.734Z,5.93
2023-01-11T13:05:26.332Z,5.96
2023-01-11T13:08:46.783Z,5.96
2023-01-11T13:11:35.484Z,5.99
2023-01-11T13:14:23.603Z,6.02
2023-01-11T13:17:05.467Z,6.01
2023-01-11T13:19:43.892Z,5.99
2023-01-11T13:22:19.475Z,6.04
2023-01-11T13:24:47.562Z,6.02
2023-01-11T13:27:19.021Z,6.04
2023-01-11T13:29:47.713Z,6.05
2023-01-11T13:32:17.072Z,6.07
2023-01-11T13:35:20.278Z,6.07
2023-01-11T13:38:05.204Z,6.09
2023-01-11T13:40:39.153Z,6.12
2023-01-11T13:43:10.361Z,6.11
2023-01-11T13:45:44.425Z,6.13
2023-01-11T13:48:53.955Z,6.08
2023-01-11T13:51:39.274Z,6.12
2023-01-11T13:54:14.227Z,6.12
2023-01-11T13:56:43.437Z,6.16
2023-01-11T13:59:19.309Z,6.21
2023-01-11T14:01:59.245Z,6.18
2023-01-11T14:04:32.507Z,6.17
2023-01-11T14:07:09.845Z,6.16
2023-01-11T14:09:59.203Z,6.21
2023-01-11T14:12:57.752Z,6.20
2023-01-11T14:15:39.439Z,6.24
2023-01-11T14:18:25.477Z,6.22
2023-01-11T14:21:03.694Z,6.21
2023-01-11T14:23:50.235Z,6.25
2023-01-11T14:26:38.847Z,6.28
2023-01-11T14:29:30.748Z,6.31
2023-01-11T14:32:47.636Z,6.27
2023-01-11T14:35:40.735Z,6.25
2023-01-11T14:38:35.952Z,6.30
2023-01-11T14:41:20.018Z,6.29
2023-01-11T14:44:22.489Z,6.30
2023-01-11T14:47:05.622Z,6.33
2023-01-11T14:50:09.371Z,6.29
2023-01-11T14:52:40.561Z,6.31
2023-01-11T14:55:16.711Z,6.31
2023-01-11T14:57:45.008Z,6.32
2023-01-11T15:00:20.761Z,6.40
2023-01-11T15:02:51.923Z,6.38
2023-01-11T15:05:35.528Z,6.35
2023-01-11T15:08:14.314Z,6.40
2023-01-11T15:11:20.774Z,6.41
2023-01-11T15:13:55.220Z,6.39
2023-01-11T15:16:59.081Z,6.39
2023-01-11T15:19:34.218Z,6.43
2023-01-11T15:22:03.022Z,6.45
2023-01-11T15:24:40.607Z,6.45
2023-01-11T15:27:07.387Z,6.47
2023-01-11T15:29:39.378Z,6.50
2023-01-11T15:32:15.189Z,6.47
2023-01-11T15:34:45.237Z,6.51
2023-01-11T15:37:22.039Z,6.52
2023-01-11T15:39:56.871Z,6.55
2023-01-11T15:42:47.804Z,6.54
2023-01-11T15:45:15.607Z,6.50
2023-01-11T15:48:07.957Z,6.53
2023-01-11T15:50:59.217Z,6.53
2023-01-11T15:53:43.158Z,6.57
2023-01-11T15:56:41.270Z,6.59
2023-01-11T15:59:33.353Z,6.61
2023-01-11T16:02:23.572Z,6.64
2023-01-11T16:04:57.962Z,6.65
2023-01-11T16:07:37.139Z,6.62
2023-01-11T16:10:30.242Z,6.69
2023-01-11T16:17:40.382Z,6.78
2023-01-11T16:20:29.016Z,6.74
2023-01-11T16:22:58.373Z,6.77
2023-01-11T16:25:29.163Z,6.77
2023-01-11T16:27:57.378Z,6.78
2023-01-11T16:30:25.218Z,6.79
2023-01-11T16:32:52.204Z,6.78
2023-01-11T16:35:25.125Z,6.82
2023-01-11T16:37:56.480Z,6.81
2023-01-11T16:40:29.861Z,6.81
2023-01-11T16:42:59.083Z,6.83
2023-01-11T16:45:39.862Z,6.85
2023-01-11T16:48:15.852Z,6.84
2023-01-11T16:51:04.060Z,6.87
2023-01-11T16:53:32.186Z,6.88
2023-01-11T16:56:10.851Z,6.89
2023-01-11T16:58:39.132Z,6.88
2023-01-11T17:01:13.778Z,6.89
2023-01-11T17:03:50.029Z,6.83
2023-01-11T17:06:22.338Z,6.84
2023-01-11T17:08:54.859Z,6.81
2023-01-11T17:11:30.261Z,6.86
2023-01-11T17:14:28.133Z,6.89
2023-01-11T17:17:02.547Z,6.93
2023-01-11T17:19:37.686Z,6.90
2023-01-11T17:22:27.234Z,6.91
2023-01-11T17:25:08.652Z,6.92
2023-01-11T17:27:43.104Z,6.89
2023-01-11T17:30:25.679Z,6.92
2023-01-11T17:33:02.114Z,6.95
2023-01-11T17:35:34.016Z,6.95
2023-01-11T17:38:03.561Z,6.97
2023-01-11T17:40:33.062Z,6.91
2023-01-11T17:43:37.821Z,6.92
2023-01-11T17:46:24.489Z,6.90
2023-01-11T17:48:58.393Z,6.97
2023-01-11T17:51:32.924Z,6.98
2023-01-11T17:53:59.840Z,7.03
2023-01-11T17:56:33.847Z,6.99
2023-01-11T17:59:21.547Z,6.96
2023-01-11T18:01:50.532Z,6.98
2023-01-11T18:04:22.267Z,7.00
2023-01-11T18:06:50.844Z,7.01
2023-01-11T18:09:22.399Z,6.99
2023-01-11T18:11:50.503Z,6.95
2023-01-11T18:14:28.310Z,6.96
2023-01-11T18:17:05.113Z,6.98
2023-01-11T18:19:34.951Z,6.99
2023-01-11T18:22:02.023Z,6.96
2023-01-11T18:24:43.412Z,6.93
2023-01-11T18:27:19.284Z,6.94
2023-01-11T18:29:47.824Z,6.98
2023-01-11T18:32:15.424Z,6.97
2023-01-11T18:34:47.191Z,6.97
2023-01-11T18:37:21.877Z,6.90
2023-01-11T18:39:59.522Z,6.91
2023-01-11T18:42:28.982Z,6.91
2023-01-11T18:44:55.715Z,6.90
2023-01-11T18:47:28.711Z,6.91
2023-01-11T18:49:56.568Z,6.91
2023-01-11T18:52:27.749Z,6.91
2023-01-11T18:54:55.730Z,6.85
2023-01-11T18:57:23.689Z,6.83
2023-01-11T18:59:52.701Z,6.87
2023-01-11T19:02:33.247Z,6.88
2023-01-11T19:05:00.245Z,6.84
2023-01-11T19:07:27.502Z,6.85
2023-01-11T19:09:57.927Z,6.81
2023-01-11T19:12:25.170Z,6.81
2023-01-11T19:14:59.570Z,6.79
2023-01-11T19:17:29.930Z,6.81
2023-01-11T19:19:58.123Z,6.83
2023-01-11T19:22:36.051Z,6.87
2023-01-11T19:25:03.833Z,6.81
2023-01-11T19:27:30.544Z,6.82
2023-01-11T19:29:58.317Z,6.84
2023-01-11T19:32:25.782Z,6.82
2023-01-11T19:34:53.762Z,6.74
2023-01-11T19:37:20.906Z,6.68
2023-01-11T19:39:49.107Z,6.65
2023-01-11T19:45:37.830Z,6.53
2023-01-11T19:48:39.200Z,6.55
2023-01-11T19:51:23.685Z,6.55
2023-01-11T19:54:08.089Z,6.53
2023-01-11T19:56:36.310Z,6.56
2023-01-11T19:59:13.127Z,6.55
2023-01-11T20:01:41.593Z,6.51
2023-01-11T20:04:09.304Z,6.50
2023-01-11T20:06:36.145Z,6.53
2023-01-11T20:09:03.955Z,6.48
2023-01-11T20:11:33.514Z,6.49
2023-01-11T20:14:00.436Z,6.47
2023-01-11T20:16:29.939Z,6.45
2023-01-11T20:18:57.569Z,6.43
2023-01-11T20:21:27.018Z,6.45
2023-01-11T20:23:59.046Z,6.42
2023-01-11T20:26:27.166Z,6.42
2023-01-11T20:28:56.822Z,6.40
2023-01-11T20:31:28.430Z,6.40
2023-01-11T20:33:56.311Z,6.41
2023-01-11T20:36:24.402Z,6.38
2023-01-11T20:38:54.599Z,6.31
2023-01-11T20:41:42.386Z,6.37
2023-01-11T20:44:09.751Z,6.28
2023-01-11T20:46:40.830Z,6.27
2023-01-11T20:49:11.809Z,6.28
2023-01-11T20:51:39.179Z,6.19
2023-01-11T20:54:09.987Z,6.22
2023-01-11T20:56:38.666Z,6.16
2023-01-11T20:59:07.755Z,6.17
2023-01-11T21:01:36.995Z,6.16
2023-01-11T21:04:06.878Z,6.17
2023-01-11T21:06:35.862Z,6.13
2023-01-11T21:09:03.573Z,6.11
2023-01-11T21:11:33.942Z,6.08
2023-01-11T21:14:13.335Z,6.09
2023-01-11T21:16:44.349Z,6.04
2023-01-11T21:19:15.274Z,5.97
2023-01-11T21:21:43.114Z,5.99
2023-01-11T21:24:13.857Z,5.89
2023-01-11T21:26:42.654Z,5.89
2023-01-11T21:29:10.622Z,5.93
2023-01-11T21:31:38.397Z,5.94
2023-01-11T21:34:05.404Z,5.88
2023-01-11T21:36:32.865Z,5.88
2023-01-11T21:39:00.773Z,5.90
2023-01-11T21:41:47.959Z,5.89
2023-01-11T21:44:16.260Z,5.80
2023-01-11T21:46:44.036Z,5.89
2023-01-11T21:49:13.577Z,5.87
2023-01-11T21:51:40.838Z,5.88
2023-01-11T21:54:10.409Z,5.82
2023-01-11T21:56:39.022Z,5.84
2023-01-11T21:59:05.947Z,5.83
2023-01-11T22:01:52.874Z,5.90
